地図

経路データ

SID SEASON NUMBER BASIN SUBBASIN NAME ISO_TIME NATURE LAT LON WMO_WIND WMO_PRES WMO_AGENCY TRACK_TYPE DIST2LAND LANDFALL IFLAG USA_AGENCY USA_ATCF_ID USA_LAT USA_LON USA_RECORD USA_STATUS USA_WIND USA_PRES USA_SSHS USA_R34_NE USA_R34_SE USA_R34_SW USA_R34_NW USA_R50_NE USA_R50_SE USA_R50_SW USA_R50_NW USA_R64_NE USA_R64_SE USA_R64_SW USA_R64_NW USA_POCI USA_ROCI USA_RMW USA_EYE TOKYO_LAT TOKYO_LON TOKYO_GRADE TOKYO_WIND TOKYO_PRES TOKYO_R50_DIR TOKYO_R50_LONG TOKYO_R50_SHORT TOKYO_R30_DIR TOKYO_R30_LONG TOKYO_R30_SHORT TOKYO_LAND CMA_LAT CMA_LON CMA_CAT CMA_WIND CMA_PRES HKO_LAT HKO_LON HKO_CAT HKO_WIND HKO_PRES NEWDELHI_LAT NEWDELHI_LON NEWDELHI_GRADE NEWDELHI_WIND NEWDELHI_PRES NEWDELHI_CI NEWDELHI_DP NEWDELHI_POCI REUNION_LAT REUNION_LON REUNION_TYPE REUNION_WIND REUNION_PRES REUNION_TNUM REUNION_CI REUNION_RMW REUNION_R34_NE REUNION_R34_SE REUNION_R34_SW REUNION_R34_NW REUNION_R50_NE REUNION_R50_SE REUNION_R50_SW REUNION_R50_NW REUNION_R64_NE REUNION_R64_SE REUNION_R64_SW REUNION_R64_NW BOM_LAT BOM_LON BOM_TYPE BOM_WIND BOM_PRES BOM_TNUM BOM_CI BOM_RMW BOM_R34_NE BOM_R34_SE BOM_R34_SW BOM_R34_NW BOM_R50_NE BOM_R50_SE BOM_R50_SW BOM_R50_NW BOM_R64_NE BOM_R64_SE BOM_R64_SW BOM_R64_NW BOM_ROCI BOM_POCI BOM_EYE BOM_POS_METHOD BOM_PRES_METHOD NADI_LAT NADI_LON NADI_CAT NADI_WIND NADI_PRES WELLINGTON_LAT WELLINGTON_LON WELLINGTON_WIND WELLINGTON_PRES DS824_LAT DS824_LON DS824_STAGE DS824_WIND DS824_PRES TD9636_LAT TD9636_LON TD9636_STAGE TD9636_WIND TD9636_PRES TD9635_LAT TD9635_LON TD9635_WIND TD9635_PRES TD9635_ROCI NEUMANN_LAT NEUMANN_LON NEUMANN_CLASS NEUMANN_WIND NEUMANN_PRES MLC_LAT MLC_LON MLC_CLASS MLC_WIND MLC_PRES USA_GUST BOM_GUST BOM_GUST_PER REUNION_GUST REUNION_GUST_PER USA_SEAHGT USA_SEARAD_NE USA_SEARAD_SE USA_SEARAD_SW USA_SEARAD_NW STORM_SPEED STORM_DIR
1907040S15062 1907 9 SI MM NOT_NAMED 1907-02-09 00:00:00 TS -14.8000 62.1000 main 754 708 _________O____ -1 -14.8000 62.1000 TC 9 220
1907040S15062 1907 9 SI MM NOT_NAMED 1907-02-09 03:00:00 TS -15.1501 61.7902 main 699 653 _________P____ -1 -15.1501 61.7902 TC 9 220
1907040S15062 1907 9 SI MM NOT_NAMED 1907-02-09 06:00:00 TS -15.5000 61.5000 main 653 613 _________O____ -1 -15.5000 61.5000 TC 9 217
1907040S15062 1907 9 SI MM NOT_NAMED 1907-02-09 09:00:00 TS -15.8499 61.2424 main 607 558 _________P____ -1 -15.8499 61.2424 TC 9 215
1907040S15062 1907 9 SI MM NOT_NAMED 1907-02-09 12:00:00 TS -16.2000 61.0000 main 558 518 _________O____ -1 -16.2000 61.0000 TC 9 214
1907040S15062 1907 9 SI MM NOT_NAMED 1907-02-09 15:00:00 TS -16.5500 60.7425 main 512 464 _________P____ -1 -16.5500 60.7425 TC 9 214
1907040S15062 1907 9 SI MM NOT_NAMED 1907-02-09 18:00:00 TS -16.9000 60.5000 main 464 424 _________O____ -1 -16.9000 60.5000 TC 8 212
1907040S15062 1907 9 SI MM NOT_NAMED 1907-02-09 21:00:00 TS -17.2425 60.2924 main 424 376 _________P____ -1 -17.2425 60.2924 TC 8 209
1907040S15062 1907 9 SI MM NOT_NAMED 1907-02-10 00:00:00 TS -17.6000 60.1000 main 376 329 _________O____ -1 -17.6000 60.1000 TC 8 207
1907040S15062 1907 9 SI MM NOT_NAMED 1907-02-10 03:00:00 TS -17.9850 59.8999 main 329 283 _________P____ -1 -17.9850 59.8999 TC 9 205
1907040S15062 1907 9 SI MM NOT_NAMED 1907-02-10 06:00:00 TS -18.4000 59.7000 main 283 238 _________O____ -1 -18.4000 59.7000 TC 10 204
1907040S15062 1907 9 SI MM NOT_NAMED 1907-02-10 09:00:00 TS -18.8500 59.4925 main 238 189 _________P____ -1 -18.8500 59.4925 TC 10 203
1907040S15062 1907 9 SI MM NOT_NAMED 1907-02-10 12:00:00 TS -19.3000 59.3000 main 189 151 _________O____ -1 -19.3000 59.3000 TC 9 202
1907040S15062 1907 9 SI MM NOT_NAMED 1907-02-10 15:00:00 TS -19.7075 59.1275 main 151 127 _________P____ -1 -19.7075 59.1275 TC 9 199
1907040S15062 1907 9 SI MM NOT_NAMED 1907-02-10 18:00:00 TS -20.1000 59.0000 main 127 114 _________O____ -1 -20.1000 59.0000 TC 8 194
1907040S15062 1907 9 SI MM NOT_NAMED 1907-02-10 21:00:00 TS -20.4775 58.9274 main 116 116 _________P____ -1 -20.4775 58.9274 TC 8 187
1907040S15062 1907 9 SI MM NOT_NAMED 1907-02-11 00:00:00 TS -20.9000 58.9000 main 132 132 _________O____ -1 -20.9000 58.9000 TC 10 183
1907040S15062 1907 9 SI MM NOT_NAMED 1907-02-11 03:00:00 TS -21.4350 58.8850 main 160 160 _________P____ -1 -21.4350 58.8850 TC 11 180
1907040S15062 1907 9 SI MM NOT_NAMED 1907-02-11 06:00:00 TS -22.0000 58.9000 main 208 208 _________O____ -1 -22.0000 58.9000 TC 11 177
1907040S15062 1907 9 SI MM NOT_NAMED 1907-02-11 09:00:00 TS -22.5150 58.9425 main 255 255 _________P____ -1 -22.5150 58.9425 TC 10 175
1907040S15062 1907 9 SI MM NOT_NAMED 1907-02-11 12:00:00 TS -23.0000 59.0000 main 310 310 _________O____ -1 -23.0000 59.0000 TC 10 175
1907040S15062 1907 9 SI MM NOT_NAMED 1907-02-11 15:00:00 TS -23.4575 59.0426 main 361 361 _________P____ -1 -23.4575 59.0426 TC 9 175
1907040S15062 1907 9 SI MM NOT_NAMED 1907-02-11 18:00:00 TS -23.9000 59.1000 main 406 406 _________O____ -1 -23.9000 59.1000 TC 9 172
1907040S15062 1907 9 SI MM NOT_NAMED 1907-02-11 21:00:00 TS -24.3199 59.1704 main 451 451 _________P____ -1 -24.3199 59.1704 TC 9 169
1907040S15062 1907 9 SI MM NOT_NAMED 1907-02-12 00:00:00 TS -24.8000 59.3000 main 507 507 _________O____ -1 -24.8000 59.3000 TC 12 164
1907040S15062 1907 9 SI MM NOT_NAMED 1907-02-12 03:00:00 TS -25.4275 59.5125 main 577 577 _________P____ -1 -25.4275 59.5125 TC 14 161
1907040S15062 1907 9 SI MM NOT_NAMED 1907-02-12 06:00:00 TS -26.1000 59.8000 main 661 661 _________O____ -1 -26.1000 59.8000 TC 14 157
1907040S15062 1907 9 SI MM NOT_NAMED 1907-02-12 09:00:00 TS -26.7300 60.1350 main 734 734 _________P____ -1 -26.7300 60.1350 TC 14 152
1907040S15062 1907 9 SI MM NOT_NAMED 1907-02-12 12:00:00 TS -27.3000 60.5000 main 811 811 _________O____ -1 -27.3000 60.5000 TC 12 149
1907040S15062 1907 9 SI MM NOT_NAMED 1907-02-12 15:00:00 TS -27.7873 60.8355 main 874 874 _________P____ -1 -27.7873 60.8355 TC 11 145
1907040S15062 1907 9 SI MM NOT_NAMED 1907-02-12 18:00:00 TS -28.2000 61.2000 main 930 930 _________O____ -1 -28.2000 61.2000 TC 10 138
1907040S15062 1907 9 SI MM NOT_NAMED 1907-02-12 21:00:00 TS -28.5629 61.6293 main 987 987 _________P____ -1 -28.5629 61.6293 TC 11 132
1907040S15062 1907 9 SI MM NOT_NAMED 1907-02-13 00:00:00 TS -28.9000 62.1000 main 1038 _________O____ -1 -28.9000 62.1000 TC 11 129

IBTrACS Databaseについて

本データベースは、米国NOAAが公開する1842年以降の世界の熱帯低気圧のベストトラックデータアーカイブInternational Best Track Archive for Climate Stewardship (IBTrACS)を、ウェブで閲覧しやすい形式に変換したものです。

最終更新日:2021-12-01